aviador You're here:

KLPR Decoded Metar

LORAIN/ELYRIA in OH, USA
Report Time2017-07-22 21:53:00
UTC Time2017-07-22 22:37:09
Flight Rules vfr VFR
Wind260° at 07 kt
W.Decomp.*RWY 25: 6.8 kt HW 1.7 kt RCW
W.Rank260° ranks 6
Current wind is below 260° avg. (9.7)
Visibility9999 m
Phenomena:N/A
Clouds:Scattered 031 Hf
Broken 040 Hf
Expected CloudBase > 3,200 ft AGL from Temp-Dew spread
Ceiling4,000 ft
Temp28°C (ISA +15)
Dew Point20°C (62% RH)
Heat Index29.7°C
QNH1008 hPa
Density Alt2,946 ft
Elevation791 ft
Report Wrong Elevation
Raw Report
KLPR 222153Z AUTO 26007KT 10SM SCT031 BKN040 28/20 A2977 RMK AO2
SLP075 T02780200=

Extra information for KLPR:More info

Metar Taf Metar & Taf Last 4 Metars F.Rules Stats Wind Profile Meteogram Temp Stats Airport Information Weather charts Add Link Nearby VenuesMetar ALERT Operation Metar Decoded Social comments

AIRNAV info for KLPR